Tyndall Air Force Base Panama City US
ICAO: KPAM
IATA: PAM
Category: Large
Scheduled Services: No

Elevation: 17 ft
TransAlt. 18000 ft.

Airport Communications:
APP/DEP:119.1
ATIS:25.44
CLNC DEL:118.05
GND:121.9
PMSV METRO:29.062
COMD POST:38.13
PTD:139.9
TWR:133.95

KPAM Zoom In..

Runways:

(A) RW 13L length 10004 ft width 200 ft
ILS 111.50 / hdg 135

(B) RW 13R length 9135 ft width 150 ft
---- / hdg 135

(C) RW 31L length 9135 ft width 150 ft
---- / hdg 315

(D) RW 31R length 10004 ft width 200 ft
ILS 110.10 / hdg 315

Location; KPAM
Day. 23 / Time. 06.56 Zulu
* Altimeter: 29.76
* Temperature: 24° c. 75.2°f.
* Wind from: 000° Speed 00 kn.
Dewpoint: 24° c.
Visibility: 7 Statute Miles.
Clouds: Clear (automated report).

KPAM 230656Z AUTO 00000KT 7SM CLR 24/24 A2976 RMK AO2 SLP081 T02430241 $


Wind - Calm.

 
 
jpsmedia.com for Web Design worldairports.se 2018   terms of use